Time;durP1;ratioP1;P1;durP2;ratioP2;P2;SDS_P1;SDS_P2;PMS_P1;PMS_P2;Temp;Humidity;BMP_temperature;BMP_pressure;BME280_temperature;BME280_humidity;BME280_pressure;Samples;Min_cycle;Max_cycle;Signal;HPM_P1;HPM_P2
2021/12/04 00:00:46;;;;;;;2.33;1.20;;;12.60;99.90;;;;;;5113205;27;20193;-77
2021/12/04 00:03:13;;;;;;;3.50;1.27;;;12.50;99.90;;;;;;5113699;28;20680;-78
2021/12/04 00:05:46;;;;;;;2.00;1.17;;;12.60;99.90;;;;;;5113102;27;20197;-77
2021/12/04 00:08:14;;;;;;;3.30;1.30;;;12.50;99.90;;;;;;5113323;28;20229;-77
2021/12/04 00:10:41;;;;;;;2.50;1.07;;;12.50;99.90;;;;;;5113005;28;20198;-77
2021/12/04 00:13:08;;;;;;;2.17;1.03;;;12.50;99.90;;;;;;5113440;28;20285;-77
2021/12/04 00:15:36;;;;;;;2.10;0.90;;;12.60;99.90;;;;;;5126275;27;20316;-77
2021/12/04 00:18:02;;;;;;;2.80;1.00;;;12.50;99.90;;;;;;5133800;27;20307;-77
2021/12/04 00:20:35;;;;;;;2.77;1.17;;;12.50;99.90;;;;;;5128096;27;20289;-78
2021/12/04 00:23:02;;;;;;;2.77;1.50;;;12.50;99.90;;;;;;5112619;28;20197;-77
2021/12/04 00:25:30;;;;;;;3.67;1.77;;;12.50;99.90;;;;;;5112469;28;20284;-77
2021/12/04 00:27:57;;;;;;;3.23;2.00;;;12.50;99.90;;;;;;5112792;28;20288;-77
2021/12/04 00:30:26;;;;;;;5.60;2.57;;;12.50;99.90;;;;;;5112601;28;20204;-77
2021/12/04 00:33:00;;;;;;;4.27;2.30;;;12.50;99.90;;;;;;5113133;28;20194;-77
2021/12/04 00:35:38;;;;;;;2.53;1.80;;;12.50;99.90;;;;;;5099595;28;20755;-77
2021/12/04 00:49:10;;;;;;;2.40;1.40;;;12.50;99.90;;;;;;5110877;28;20267;-77
2021/12/04 00:51:39;;;;;;;2.97;1.40;;;12.50;99.90;;;;;;5112772;27;20288;-77
2021/12/04 00:54:09;;;;;;;2.30;1.50;;;12.50;99.90;;;;;;5112486;28;20225;-77
2021/12/04 00:56:38;;;;;;;3.10;1.43;;;12.50;99.90;;;;;;5112454;27;20220;-77
2021/12/04 00:59:05;;;;;;;2.50;1.60;;;12.50;99.90;;;;;;5112487;28;20284;-77
2021/12/04 01:01:32;;;;;;;3.13;1.20;;;12.50;99.90;;;;;;5112080;28;20677;-77
2021/12/04 01:03:59;;;;;;;5.00;1.50;;;12.40;99.90;;;;;;5111884;28;20301;-77
2021/12/04 01:06:26;;;;;;;2.20;1.00;;;12.50;99.90;;;;;;5126388;28;20236;-77
2021/12/04 01:08:53;;;;;;;1.83;1.00;;;12.50;99.90;;;;;;5112680;28;20630;-77
2021/12/04 01:11:20;;;;;;;3.77;0.90;;;12.50;99.90;;;;;;5112420;28;20284;-77
2021/12/04 01:13:48;;;;;;;2.60;0.87;;;12.50;99.90;;;;;;5112553;28;20672;-77
2021/12/04 01:16:15;;;;;;;1.60;0.93;;;12.50;99.90;;;;;;5112232;28;20261;-77
2021/12/04 01:18:44;;;;;;;1.73;0.70;;;12.50;99.90;;;;;;5111864;28;20240;-78
2021/12/04 01:21:11;;;;;;;2.43;0.90;;;12.50;99.90;;;;;;5112915;28;20201;-77
2021/12/04 01:23:38;;;;;;;2.03;1.00;;;12.50;99.90;;;;;;5112220;28;20201;-77
2021/12/04 01:26:05;;;;;;;1.67;0.63;;;12.50;99.90;;;;;;5111900;28;20208;-77
2021/12/04 01:28:33;;;;;;;2.00;1.00;;;12.50;99.90;;;;;;5122142;28;20220;-77
2021/12/04 01:31:01;;;;;;;3.13;1.10;;;12.50;99.90;;;;;;5133166;27;20235;-78
2021/12/04 01:33:28;;;;;;;4.13;1.13;;;12.50;99.90;;;;;;5132297;27;20744;-77
2021/12/04 01:35:55;;;;;;;2.53;1.00;;;12.50;99.90;;;;;;5132848;27;20228;-77
2021/12/04 01:38:22;;;;;;;1.70;1.10;;;12.50;99.90;;;;;;5123321;27;20249;-77
2021/12/04 01:40:50;;;;;;;2.63;1.20;;;12.50;99.90;;;;;;5116360;27;20723;-78
2021/12/04 01:43:17;;;;;;;3.20;1.40;;;12.50;99.90;;;;;;5116165;28;20284;-78
2021/12/04 01:45:44;;;;;;;3.77;1.80;;;12.50;99.90;;;;;;5116964;28;20285;-77
2021/12/04 01:48:13;;;;;;;3.10;1.57;;;12.60;99.90;;;;;;5115753;27;20273;-77
2021/12/04 01:50:40;;;;;;;4.83;1.73;;;12.60;99.90;;;;;;5134419;27;20235;-77
2021/12/04 01:53:07;;;;;;;3.13;1.70;;;12.50;99.90;;;;;;5136846;27;20311;-77
2021/12/04 01:55:37;;;;;;;2.70;1.80;;;12.50;99.90;;;;;;5136804;27;20231;-77
2021/12/04 01:58:05;;;;;;;2.27;2.03;;;12.60;99.90;;;;;;5136863;27;20277;-77
2021/12/04 02:00:35;;;;;;;2.17;1.27;;;12.60;99.90;;;;;;5128083;27;20198;-77
2021/12/04 02:03:03;;;;;;;2.73;1.30;;;12.50;99.90;;;;;;5115519;28;20197;-78
2021/12/04 02:05:32;;;;;;;3.23;1.10;;;12.50;99.90;;;;;;5115449;28;20194;-78
2021/12/04 02:07:59;;;;;;;2.50;1.40;;;12.50;99.90;;;;;;5115404;28;20280;-78
2021/12/04 02:10:26;;;;;;;2.03;1.30;;;12.50;99.90;;;;;;5128422;27;20293;-77
2021/12/04 02:12:53;;;;;;;4.00;1.67;;;12.50;99.90;;;;;;5128953;27;20224;-78
2021/12/04 02:15:21;;;;;;;3.00;1.90;;;12.50;99.90;;;;;;5114794;28;20304;-77
2021/12/04 02:17:49;;;;;;;3.47;1.60;;;12.50;99.90;;;;;;5115546;28;20702;-78
2021/12/04 02:20:20;;;;;;;4.07;1.87;;;12.50;99.90;;;;;;5115533;28;20190;-77
2021/12/04 02:22:47;;;;;;;2.13;1.63;;;12.50;99.90;;;;;;5115250;28;20288;-77
2021/12/04 02:25:15;;;;;;;2.47;1.70;;;12.50;99.90;;;;;;5114808;27;20229;-77
2021/12/04 02:27:43;;;;;;;2.37;1.53;;;12.50;99.90;;;;;;5115363;27;20232;-78
2021/12/04 02:30:12;;;;;;;2.00;1.80;;;12.50;99.90;;;;;;5115852;27;20270;-77
2021/12/04 02:32:40;;;;;;;2.83;1.50;;;12.50;99.90;;;;;;5135502;27;20289;-78
2021/12/04 02:35:10;;;;;;;2.67;1.30;;;12.50;99.90;;;;;;5118749;27;20236;-78
2021/12/04 02:37:39;;;;;;;2.60;1.10;;;12.50;99.90;;;;;;5115202;28;20328;-77
2021/12/04 02:40:10;;;;;;;2.50;1.10;;;12.40;99.90;;;;;;5115050;28;20248;-77
2021/12/04 02:42:39;;;;;;;2.27;1.10;;;12.40;99.90;;;;;;5113056;27;20280;-77
2021/12/04 02:45:09;;;;;;;1.57;1.10;;;12.40;99.90;;;;;;5133564;27;20634;-77
2021/12/04 02:47:37;;;;;;;2.80;1.03;;;12.40;99.90;;;;;;5119347;27;20288;-78
2021/12/04 02:50:06;;;;;;;2.43;0.93;;;12.40;99.90;;;;;;5114383;28;20285;-78
2021/12/04 02:52:34;;;;;;;1.47;1.00;;;12.40;99.90;;;;;;5128725;27;20201;-77
2021/12/04 02:55:04;;;;;;;2.07;0.90;;;12.40;99.90;;;;;;5114288;28;20255;-77
2021/12/04 02:57:32;;;;;;;0.97;0.83;;;12.40;99.90;;;;;;5115201;28;20256;-77
2021/12/04 02:59:59;;;;;;;1.57;0.80;;;12.40;99.90;;;;;;5114407;28;20193;-78
2021/12/04 03:02:26;;;;;;;1.13;0.70;;;12.40;99.90;;;;;;5114568;28;20753;-77
2021/12/04 03:04:55;;;;;;;2.73;1.13;;;12.40;99.90;;;;;;5114857;28;20302;-77
2021/12/04 03:07:23;;;;;;;2.40;0.93;;;12.40;99.90;;;;;;5106494;27;20286;-77
2021/12/04 03:09:50;;;;;;;2.73;1.00;;;12.40;99.90;;;;;;5108167;27;20771;-77
2021/12/04 03:12:22;;;;;;;2.13;1.30;;;12.30;99.90;;;;;;5103697;28;20661;-77
2021/12/04 03:14:49;;;;;;;3.43;1.30;;;12.30;99.90;;;;;;5113708;28;20689;-77
2021/12/04 03:17:19;;;;;;;1.23;1.03;;;12.30;99.90;;;;;;5114064;27;20241;-77
2021/12/04 03:19:46;;;;;;;1.67;1.00;;;12.30;99.90;;;;;;5114735;27;20204;-77
2021/12/04 03:22:14;;;;;;;1.47;1.37;;;12.30;99.90;;;;;;5114585;28;20236;-76
2021/12/04 03:24:43;;;;;;;1.57;1.30;;;12.30;99.90;;;;;;5114779;28;20210;-77
2021/12/04 03:27:11;;;;;;;3.23;1.40;;;12.30;99.90;;;;;;5114197;28;20232;-77
2021/12/04 03:29:42;;;;;;;2.13;1.60;;;12.30;99.90;;;;;;5123315;27;20209;-77
2021/12/04 03:40:35;;;;;;;3.23;1.60;;;12.30;99.90;;;;;;5114098;28;20578;-77
2021/12/04 03:43:03;;;;;;;1.93;1.00;;;12.30;99.90;;;;;;5113782;28;20756;-78
2021/12/04 03:45:34;;;;;;;1.90;0.80;;;12.20;99.90;;;;;;5113397;28;20288;-78
2021/12/04 03:48:07;;;;;;;1.70;0.60;;;12.20;99.90;;;;;;5113967;27;20278;-77
2021/12/04 03:50:34;;;;;;;2.00;0.83;;;12.20;99.90;;;;;;5113731;28;20193;-78
2021/12/04 03:53:01;;;;;;;1.67;0.90;;;12.10;99.90;;;;;;5114261;28;20617;-77
2021/12/04 03:55:28;;;;;;;0.80;0.60;;;12.00;99.90;;;;;;5130139;27;20205;-77
2021/12/04 03:57:56;;;;;;;1.57;0.70;;;12.00;99.90;;;;;;5112987;28;20298;-78
2021/12/04 04:00:25;;;;;;;2.30;0.67;;;11.90;99.90;;;;;;5113615;27;20280;-77
2021/12/04 04:02:53;;;;;;;1.17;0.67;;;11.80;99.90;;;;;;5116883;27;20276;-78
2021/12/04 04:05:20;;;;;;;1.73;0.73;;;11.70;99.90;;;;;;5114822;27;20229;-78
2021/12/04 04:07:47;;;;;;;1.43;0.70;;;11.70;99.90;;;;;;5112773;28;20635;-77
2021/12/04 04:10:14;;;;;;;2.33;0.63;;;11.70;99.90;;;;;;5113562;28;20566;-78
2021/12/04 04:12:41;;;;;;;1.60;0.80;;;11.70;99.90;;;;;;5113328;28;20200;-78
2021/12/04 04:15:08;;;;;;;2.00;0.70;;;11.70;99.90;;;;;;5113375;28;20292;-78
2021/12/04 04:17:42;;;;;;;1.73;0.80;;;11.80;99.90;;;;;;5113146;27;20392;-77
2021/12/04 04:20:12;;;;;;;1.67;0.70;;;11.70;99.90;;;;;;5113159;28;20305;-78
2021/12/04 04:22:40;;;;;;;2.10;0.80;;;11.80;99.90;;;;;;5112711;28;20201;-77
2021/12/04 04:25:08;;;;;;;1.90;0.70;;;11.80;99.90;;;;;;5113265;28;20225;-77
2021/12/04 04:27:35;;;;;;;2.20;0.77;;;11.80;99.90;;;;;;5112679;28;20277;-77
2021/12/04 04:30:02;;;;;;;1.43;0.70;;;11.80;99.90;;;;;;5113036;28;20372;-78
2021/12/04 04:32:30;;;;;;;2.70;0.70;;;11.80;99.90;;;;;;5113387;28;20318;-78
2021/12/04 04:35:06;;;;;;;1.87;0.77;;;11.80;99.90;;;;;;5113291;28;20204;-78
2021/12/04 04:37:40;;;;;;;1.33;0.70;;;11.80;99.90;;;;;;5113761;27;20217;-77
2021/12/04 04:59:34;;;;;;;1.43;0.60;;;11.70;99.90;;;;;;5112651;28;20232;-77
2021/12/04 05:13:10;;;;;;;0.47;0.33;;;11.60;99.90;;;;;;5036354;28;20330;-78
2021/12/04 05:15:42;;;;;;;2.60;0.50;;;11.60;99.90;;;;;;5049430;28;20275;-77
2021/12/04 05:18:19;;;;;;;2.00;0.30;;;11.30;99.90;;;;;;5049719;28;20223;-77
2021/12/04 05:20:52;;;;;;;3.50;0.40;;;11.10;99.90;;;;;;5049505;28;20199;-77
2021/12/04 05:23:19;;;;;;;1.43;0.30;;;10.90;99.90;;;;;;5049394;28;20310;-77
2021/12/04 05:25:47;;;;;;;1.40;0.40;;;10.80;99.90;;;;;;5048710;28;20199;-77
2021/12/04 05:28:15;;;;;;;2.40;0.40;;;10.80;99.90;;;;;;5029533;28;20193;-77
2021/12/04 05:30:42;;;;;;;2.90;0.50;;;10.70;99.90;;;;;;5029382;28;20263;-77
2021/12/04 05:33:09;;;;;;;2.03;0.50;;;10.70;99.90;;;;;;5029406;28;20236;-77
2021/12/04 05:35:36;;;;;;;3.30;0.50;;;10.70;99.90;;;;;;5037527;28;20303;-77
2021/12/04 05:38:03;;;;;;;4.43;0.50;;;10.60;99.90;;;;;;5030245;28;20248;-77
2021/12/04 05:40:30;;;;;;;2.57;0.50;;;10.50;99.90;;;;;;5039408;28;20196;-78
2021/12/04 05:43:02;;;;;;;2.53;0.50;;;10.40;99.90;;;;;;5048959;28;20626;-78
2021/12/04 05:45:30;;;;;;;4.80;0.70;;;10.40;99.90;;;;;;5087191;28;20613;-78
2021/12/04 05:48:02;;;;;;;2.23;0.60;;;10.40;99.90;;;;;;5101411;28;20240;-77
2021/12/04 05:50:53;;;;;;;3.10;0.70;;;10.30;99.90;;;;;;5112196;28;20229;-77
2021/12/04 05:53:22;;;;;;;6.30;0.73;;;10.20;99.90;;;;;;5111430;28;20228;-77
2021/12/04 05:55:53;;;;;;;5.07;0.60;;;10.10;99.90;;;;;;5111610;28;20202;-78
2021/12/04 05:58:24;;;;;;;7.03;1.07;;;10.00;99.90;;;;;;5112299;28;20270;-78
2021/12/04 06:00:52;;;;;;;7.27;0.90;;;9.90;99.90;;;;;;5112117;28;20383;-78
2021/12/04 06:03:20;;;;;;;6.27;1.03;;;9.80;99.90;;;;;;5111613;28;20677;-78
2021/12/04 06:05:47;;;;;;;5.17;0.70;;;9.80;99.90;;;;;;5112239;28;20281;-78
2021/12/04 06:08:14;;;;;;;4.10;0.70;;;9.80;99.90;;;;;;5111444;28;20661;-78
2021/12/04 06:10:41;;;;;;;5.47;1.10;;;9.70;99.90;;;;;;5115172;28;20293;-77
2021/12/04 06:13:08;;;;;;;4.33;0.90;;;9.60;99.90;;;;;;5132702;28;20224;-78
2021/12/04 06:15:36;;;;;;;6.67;0.97;;;9.60;99.90;;;;;;5131383;28;20268;-77
2021/12/04 06:18:03;;;;;;;4.13;1.00;;;9.50;99.90;;;;;;5111538;28;20253;-77
2021/12/04 06:23:14;;;;;;;7.03;1.10;;;9.40;99.90;;;;;;5090633;28;20233;-77
2021/12/04 06:25:42;;;;;;;4.20;1.07;;;9.30;99.90;;;;;;5092672;28;20230;-78
2021/12/04 06:28:09;;;;;;;7.50;1.20;;;9.40;99.90;;;;;;5092325;28;20667;-78
2021/12/04 06:30:39;;;;;;;6.33;1.03;;;9.30;99.90;;;;;;5092886;28;20303;-78
2021/12/04 06:33:08;;;;;;;9.67;1.20;;;9.20;99.90;;;;;;5091689;28;20201;-78
2021/12/04 06:35:39;;;;;;;4.17;0.87;;;9.30;99.90;;;;;;5101733;28;20225;-77
2021/12/04 06:38:06;;;;;;;4.33;1.10;;;9.30;99.90;;;;;;5100129;28;20304;-77
2021/12/04 06:40:33;;;;;;;9.07;1.27;;;9.20;99.90;;;;;;5101033;28;20293;-77
2021/12/04 06:43:01;;;;;;;10.73;1.83;;;9.20;99.90;;;;;;5091298;28;20233;-77
2021/12/04 06:45:30;;;;;;;7.37;1.43;;;9.20;99.90;;;;;;5101763;28;20225;-78
2021/12/04 06:48:01;;;;;;;8.47;1.40;;;9.20;99.90;;;;;;5098953;28;20665;-78
2021/12/04 06:50:37;;;;;;;10.90;1.57;;;9.30;99.90;;;;;;5091961;28;20209;-77
2021/12/04 06:53:12;;;;;;;9.37;1.70;;;9.30;99.90;;;;;;5091748;28;20247;-77
2021/12/04 06:55:43;;;;;;;11.87;1.73;;;9.30;99.90;;;;;;5092305;28;20259;-78
2021/12/04 06:58:10;;;;;;;11.57;2.23;;;9.30;99.90;;;;;;5091583;28;20217;-77
2021/12/04 07:00:37;;;;;;;8.90;1.40;;;9.20;99.90;;;;;;5093540;28;20198;-78
2021/12/04 07:03:05;;;;;;;8.83;1.47;;;9.20;99.90;;;;;;5114866;28;20282;-77
2021/12/04 07:05:32;;;;;;;9.00;1.57;;;9.20;99.90;;;;;;5114610;28;20295;-77
2021/12/04 07:07:59;;;;;;;9.77;1.90;;;9.10;99.90;;;;;;5113860;28;20292;-78
2021/12/04 07:10:26;;;;;;;8.53;1.57;;;9.10;99.90;;;;;;5115848;27;20205;-78
2021/12/04 07:12:53;;;;;;;9.00;1.53;;;9.10;99.90;;;;;;5114541;28;20205;-77
2021/12/04 07:15:20;;;;;;;7.57;2.00;;;9.10;99.90;;;;;;5114131;28;20450;-77
2021/12/04 07:17:47;;;;;;;10.80;1.93;;;9.10;99.90;;;;;;5115048;27;20204;-77
2021/12/04 07:20:15;;;;;;;14.70;1.87;;;9.10;99.90;;;;;;5114502;28;20721;-78
2021/12/04 07:22:42;;;;;;;8.70;1.47;;;9.10;99.90;;;;;;5114789;28;20580;-77
2021/12/04 07:25:10;;;;;;;6.83;1.60;;;9.10;99.90;;;;;;5114681;28;20259;-77
2021/12/04 07:27:36;;;;;;;11.17;1.60;;;9.20;99.90;;;;;;5129240;27;20641;-77
2021/12/04 07:30:05;;;;;;;12.77;1.70;;;9.20;99.90;;;;;;5134856;27;20231;-77
2021/12/04 07:32:32;;;;;;;7.77;1.67;;;9.10;99.90;;;;;;5119921;27;20205;-77
2021/12/04 07:34:59;;;;;;;12.33;1.80;;;9.10;99.90;;;;;;5113402;28;20291;-77
2021/12/04 07:37:28;;;;;;;13.00;2.77;;;9.00;99.90;;;;;;5118353;27;20755;-78
2021/12/04 07:39:54;;;;;;;13.93;2.67;;;9.10;99.90;;;;;;5134724;27;20256;-77
2021/12/04 07:42:21;;;;;;;11.40;3.10;;;9.10;99.90;;;;;;5134689;27;20291;-77
2021/12/04 07:44:49;;;;;;;12.30;2.83;;;9.10;99.90;;;;;;5117110;27;20284;-77
2021/12/04 07:47:15;;;;;;;10.83;2.50;;;9.20;99.90;;;;;;5114487;28;20285;-77
2021/12/04 07:49:43;;;;;;;11.07;1.93;;;9.20;99.90;;;;;;5113719;28;20203;-77
2021/12/04 07:52:11;;;;;;;12.50;3.10;;;9.20;99.90;;;;;;5113828;28;20216;-77
2021/12/04 07:54:39;;;;;;;12.07;2.10;;;9.10;99.90;;;;;;5114235;28;20198;-77
2021/12/04 07:57:06;;;;;;;11.80;1.87;;;9.10;99.90;;;;;;5113745;28;20670;-77
2021/12/04 07:59:33;;;;;;;10.83;1.90;;;9.00;99.90;;;;;;5113927;28;20313;-76
2021/12/04 08:02:01;;;;;;;9.63;1.80;;;8.90;99.90;;;;;;5113937;28;20293;-76
2021/12/04 08:04:27;;;;;;;12.33;1.90;;;8.90;99.90;;;;;;5113773;27;20287;-77
2021/12/04 08:06:55;;;;;;;8.83;1.60;;;8.90;99.90;;;;;;5113915;28;20290;-76
2021/12/04 08:09:22;;;;;;;8.93;1.70;;;8.80;99.90;;;;;;5113377;28;20232;-76
2021/12/04 08:11:50;;;;;;;11.57;2.50;;;8.90;99.90;;;;;;5113456;28;20619;-77
2021/12/04 08:14:18;;;;;;;11.53;2.60;;;8.90;99.90;;;;;;5113613;27;20273;-76
2021/12/04 08:16:45;;;;;;;14.07;3.87;;;9.00;99.90;;;;;;5113172;28;20287;-76
2021/12/04 08:19:11;;;;;;;11.80;2.90;;;8.90;99.90;;;;;;5112339;28;20328;-76
2021/12/04 08:21:38;;;;;;;10.60;2.50;;;9.10;99.90;;;;;;5125069;27;20301;-76
2021/12/04 08:24:07;;;;;;;11.03;3.13;;;9.20;99.90;;;;;;5112518;28;20841;-77
2021/12/04 08:26:34;;;;;;;14.60;4.43;;;9.20;99.90;;;;;;5111897;28;20209;-76
2021/12/04 08:29:03;;;;;;;7.67;2.47;;;9.20;99.90;;;;;;5116058;27;20690;-76
2021/12/04 08:31:30;;;;;;;7.60;2.20;;;9.30;99.90;;;;;;5112111;28;20204;-76
2021/12/04 08:33:57;;;;;;;10.10;2.30;;;9.20;99.90;;;;;;5111706;28;20293;-75
2021/12/04 08:36:24;;;;;;;9.47;1.40;;;9.20;99.90;;;;;;5114436;27;20628;-76
2021/12/04 08:38:51;;;;;;;7.47;1.63;;;9.20;99.90;;;;;;5113873;27;20280;-78
2021/12/04 08:41:19;;;;;;;7.23;1.50;;;9.20;99.90;;;;;;5111650;28;20620;-76
2021/12/04 08:43:46;;;;;;;6.47;1.73;;;9.30;99.90;;;;;;5112381;28;20942;-77
2021/12/04 08:46:19;;;;;;;6.87;1.73;;;9.50;99.90;;;;;;5109985;27;20233;-76
2021/12/04 08:48:46;;;;;;;11.73;2.07;;;9.80;99.90;;;;;;5109685;28;20303;-76
2021/12/04 08:51:13;;;;;;;6.53;1.40;;;9.70;99.90;;;;;;5110830;28;20225;-76
2021/12/04 08:53:41;;;;;;;7.77;1.93;;;9.50;99.90;;;;;;5111510;28;20958;-76
2021/12/04 08:56:08;;;;;;;4.20;1.43;;;9.50;99.90;;;;;;5112226;28;20251;-76
2021/12/04 08:58:36;;;;;;;5.57;1.47;;;9.50;99.90;;;;;;5111985;28;20291;-76
2021/12/04 09:01:06;;;;;;;6.60;1.40;;;9.50;99.90;;;;;;5111686;28;20247;-76
2021/12/04 09:03:40;;;;;;;6.23;1.17;;;9.60;99.90;;;;;;5112122;27;20200;-77
2021/12/04 09:06:08;;;;;;;4.97;1.23;;;9.40;99.90;;;;;;5109397;28;21622;-76
2021/12/04 09:08:35;;;;;;;5.27;1.37;;;9.50;99.90;;;;;;5111356;28;20229;-76
2021/12/04 09:11:06;;;;;;;7.10;1.40;;;10.10;99.90;;;;;;5109975;28;20284;-76
2021/12/04 09:13:33;;;;;;;5.63;1.53;;;11.30;99.90;;;;;;5111258;28;20198;-77
2021/12/04 09:16:01;;;;;;;4.80;1.23;;;11.10;99.90;;;;;;5110391;28;20236;-76
2021/12/04 09:18:28;;;;;;;4.97;1.23;;;10.80;99.90;;;;;;5110323;28;20233;-77
2021/12/04 09:20:57;;;;;;;6.20;1.50;;;10.50;99.90;;;;;;5110810;28;20253;-77
2021/12/04 09:23:29;;;;;;;8.30;1.97;;;10.20;99.90;;;;;;5111429;28;20209;-77
2021/12/04 09:26:02;;;;;;;6.20;1.43;;;10.00;99.90;;;;;;5111541;28;20195;-77
2021/12/04 09:28:38;;;;;;;8.33;1.50;;;9.80;99.90;;;;;;5110216;28;20194;-77
2021/12/04 09:31:27;;;;;;;7.00;1.30;;;9.80;99.90;;;;;;5110856;27;20201;-77
2021/12/04 09:34:20;;;;;;;4.17;1.20;;;9.70;99.90;;;;;;5110622;28;20292;-77
2021/12/04 09:37:03;;;;;;;7.47;1.27;;;9.40;99.90;;;;;;5110817;28;20270;-77
2021/12/04 10:13:22;;;;;;;3.27;0.97;;;7.80;99.90;;;;;;5091575;28;20266;-76
2021/12/04 10:18:51;;;;;;;3.57;0.87;;;7.60;99.90;;;;;;5087346;28;20228;-75
2021/12/04 10:35:18;;;;;;;8.17;1.63;;;7.60;99.90;;;;;;5007726;28;20545;-75
2021/12/04 10:37:51;;;;;;;6.10;2.07;;;7.60;99.90;;;;;;5011448;28;20775;-77
2021/12/04 10:40:20;;;;;;;5.90;1.20;;;7.70;99.90;;;;;;5010881;28;20341;-76
2021/12/04 10:42:53;;;;;;;3.40;0.90;;;7.70;99.90;;;;;;5009676;28;20232;-77
2021/12/04 10:45:30;;;;;;;5.67;1.10;;;7.50;99.90;;;;;;5007850;28;20205;-77
2021/12/04 10:47:59;;;;;;;5.17;1.00;;;7.50;99.90;;;;;;5036549;28;20200;-78
2021/12/04 10:50:35;;;;;;;3.57;0.80;;;7.60;99.90;;;;;;5050852;28;20192;-77
2021/12/04 10:53:04;;;;;;;7.90;1.20;;;7.80;99.90;;;;;;5051975;28;20250;-77
2021/12/04 10:55:44;;;;;;;4.10;1.20;;;7.80;99.90;;;;;;5049541;28;20983;-77
2021/12/04 11:01:14;;;;;;;5.70;1.60;;;8.00;99.90;;;;;;5037653;28;20322;-76
2021/12/04 11:03:47;;;;;;;5.93;1.30;;;7.90;99.90;;;;;;5055682;28;20204;-76
2021/12/04 11:06:40;;;;;;;4.73;1.20;;;8.00;99.90;;;;;;5063112;28;20230;-77
2021/12/04 11:43:38;;;;;;;3.10;1.20;;;8.30;99.90;;;;;;5039964;28;20592;-76
2021/12/04 11:46:19;;;;;;;3.80;1.10;;;;;;;;;;5068893;28;20195;-76
2021/12/04 11:48:48;;;;;;;7.80;1.40;;;;;;;;;;5069926;28;20576;-76
2021/12/04 11:51:18;;;;;;;4.00;1.10;;;8.10;99.90;;;;;;5080612;28;20198;-76
2021/12/04 11:53:46;;;;;;;5.47;1.53;;;8.30;99.90;;;;;;5115381;27;21037;-77
2021/12/04 11:56:20;;;;;;;5.90;1.63;;;8.30;99.90;;;;;;5111051;28;20638;-77
2021/12/04 11:58:50;;;;;;;7.90;1.37;;;8.40;99.90;;;;;;5113386;28;20233;-76
2021/12/04 12:01:23;;;;;;;4.20;1.00;;;8.20;99.90;;;;;;5112466;27;20214;-76
2021/12/04 12:03:53;;;;;;;3.00;0.93;;;;;;;;;;5109252;28;20248;-76
2021/12/04 12:06:30;;;;;;;4.97;1.10;;;;;;;;;;5113223;27;20198;-76
2021/12/04 12:09:02;;;;;;;5.10;1.00;;;;;;;;;;5111948;27;20284;-76
2021/12/04 12:11:30;;;;;;;7.07;1.70;;;;;;;;;;5112068;28;20277;-76
2021/12/04 12:14:00;;;;;;;6.77;1.60;;;7.80;99.90;;;;;;5107838;27;20308;-76
2021/12/04 12:16:33;;;;;;;6.37;1.37;;;7.80;99.90;;;;;;5131392;27;20230;-76
2021/12/04 12:19:07;;;;;;;5.47;1.30;;;7.80;99.90;;;;;;5112729;28;20647;-76
2021/12/04 12:21:51;;;;;;;4.83;1.30;;;7.90;99.90;;;;;;5111660;28;20228;-76
2021/12/04 12:27:24;;;;;;;3.40;0.77;;;9.60;99.90;;;;;;5110944;28;20655;-76
2021/12/04 12:33:00;;;;;;;3.80;1.00;;;9.10;99.90;;;;;;5112035;28;20199;-76
2021/12/04 12:38:30;;;;;;;3.43;1.20;;;9.20;99.90;;;;;;5107463;28;20216;-77
2021/12/04 12:41:00;;;;;;;4.30;1.07;;;8.90;99.90;;;;;;5108017;28;20247;-76
2021/12/04 12:43:38;;;;;;;8.37;1.10;;;9.00;99.90;;;;;;5112693;28;20285;-77
2021/12/04 12:46:05;;;;;;;5.13;1.20;;;9.60;99.90;;;;;;5111886;28;20203;-77
2021/12/04 12:48:43;;;;;;;6.83;1.50;;;9.90;99.90;;;;;;5112616;28;20201;-76
2021/12/04 12:51:12;;;;;;;3.60;0.90;;;9.70;99.90;;;;;;5119080;27;20279;-77
2021/12/04 12:53:44;;;;;;;3.77;0.97;;;9.30;99.90;;;;;;5111482;28;20202;-77
2021/12/04 12:56:14;;;;;;;4.57;1.10;;;8.80;99.90;;;;;;5110924;28;20201;-77
2021/12/04 12:58:45;;;;;;;4.40;1.20;;;8.50;99.90;;;;;;5111750;28;20199;-77
2021/12/04 13:12:46;;;;;;;4.33;1.20;;;8.00;99.90;;;;;;5089211;28;20193;-77
2021/12/04 13:15:14;;;;;;;7.93;1.73;;;8.10;99.90;;;;;;5088961;28;20237;-77
2021/12/04 13:17:41;;;;;;;8.73;1.90;;;8.20;99.90;;;;;;5096033;28;20224;-76
2021/12/04 13:20:10;;;;;;;5.23;1.17;;;8.00;99.90;;;;;;5092167;28;20707;-77
2021/12/04 13:22:39;;;;;;;3.73;0.87;;;7.90;99.90;;;;;;5088854;28;20441;-77
2021/12/04 13:25:10;;;;;;;2.87;0.90;;;7.60;99.90;;;;;;5088418;28;20198;-77
2021/12/04 13:30:08;;;;;;;4.60;1.13;;;7.60;99.90;;;;;;5089182;28;20201;-78
2021/12/04 13:32:38;;;;;;;3.80;0.93;;;7.70;99.90;;;;;;5097134;28;20229;-76
2021/12/04 13:35:09;;;;;;;9.10;2.30;;;7.80;99.90;;;;;;5092359;28;20194;-78
2021/12/04 13:37:39;;;;;;;6.43;2.57;;;7.90;99.90;;;;;;5092383;28;20288;-76
2021/12/04 13:40:09;;;;;;;9.83;2.13;;;7.90;99.90;;;;;;5093389;28;20270;-78
2021/12/04 13:42:38;;;;;;;8.40;1.80;;;7.80;99.90;;;;;;5091987;28;20282;-76
2021/12/04 13:45:09;;;;;;;8.60;2.37;;;7.60;99.90;;;;;;5114528;28;20200;-77
2021/12/04 13:47:37;;;;;;;8.63;1.90;;;7.60;99.90;;;;;;5120904;27;20306;-77
2021/12/04 13:52:49;;;;;;;7.30;1.80;;;6.90;99.90;;;;;;5126039;27;20193;-77
2021/12/04 13:55:18;;;;;;;8.43;2.37;;;6.70;99.90;;;;;;5127914;27;20193;-77
2021/12/04 13:57:46;;;;;;;4.90;1.27;;;6.80;99.90;;;;;;5118495;27;20202;-77
2021/12/04 14:00:15;;;;;;;2.47;0.90;;;7.00;99.90;;;;;;5113265;27;20639;-77
2021/12/04 14:02:42;;;;;;;3.50;1.17;;;7.20;99.90;;;;;;5115010;28;20284;-78
2021/12/04 14:05:12;;;;;;;3.43;1.07;;;7.30;99.90;;;;;;5121236;27;20738;-78
2021/12/04 14:07:46;;;;;;;6.43;1.50;;;7.30;99.90;;;;;;5114678;28;20193;-78
2021/12/04 14:10:17;;;;;;;3.17;0.70;;;6.90;99.90;;;;;;5114669;28;20209;-76
2021/12/04 14:12:44;;;;;;;5.17;0.83;;;6.30;99.90;;;;;;5115142;27;20201;-76
2021/12/04 14:15:14;;;;;;;3.67;1.40;;;6.00;99.90;;;;;;5112050;27;20309;-76
2021/12/04 14:17:41;;;;;;;4.80;1.30;;;5.40;99.90;;;;;;5110788;28;20240;-76
2021/12/04 14:20:10;;;;;;;3.17;1.60;;;5.20;99.90;;;;;;5113247;28;20697;-76
2021/12/04 14:22:46;;;;;;;3.67;1.10;;;4.60;99.90;;;;;;5114857;27;20259;-75
2021/12/04 14:25:15;;;;;;;15.77;10.07;;;4.40;99.90;;;;;;5114381;28;20207;-77
2021/12/04 14:27:43;;;;;;;16.10;10.73;;;4.40;99.90;;;;;;5115315;28;20199;-78
2021/12/04 14:30:15;;;;;;;10.97;6.07;;;4.20;99.90;;;;;;5115014;28;20640;-78
2021/12/04 14:32:45;;;;;;;4.90;3.37;;;4.10;99.90;;;;;;5115390;28;20242;-78
2021/12/04 14:35:15;;;;;;;5.00;3.73;;;4.20;99.90;;;;;;5115338;28;20208;-77
2021/12/04 14:37:48;;;;;;;3.90;2.67;;;4.10;99.90;;;;;;5128293;27;20765;-77
2021/12/04 14:40:20;;;;;;;8.97;3.33;;;4.30;99.90;;;;;;5116327;27;20215;-78
2021/12/04 14:42:50;;;;;;;9.03;3.33;;;4.10;99.90;;;;;;5117173;27;20317;-78
2021/12/04 14:45:20;;;;;;;6.30;3.10;;;4.30;99.90;;;;;;5120193;27;20213;-78
2021/12/04 14:47:50;;;;;;;4.03;1.70;;;4.60;99.90;;;;;;5114966;27;20302;-76
2021/12/04 14:50:19;;;;;;;5.80;1.43;;;4.90;99.90;;;;;;5118763;27;20281;-78
2021/12/04 14:52:50;;;;;;;3.97;1.37;;;5.20;99.90;;;;;;5113865;27;20236;-75
2021/12/04 14:55:21;;;;;;;2.60;1.17;;;5.30;99.90;;;;;;5121662;27;20284;-78
2021/12/04 14:57:48;;;;;;;4.03;1.23;;;5.50;99.90;;;;;;5114471;27;20291;-78
2021/12/04 15:00:18;;;;;;;2.47;0.80;;;5.80;99.90;;;;;;5114730;28;20228;-78
2021/12/04 15:02:51;;;;;;;3.87;1.20;;;5.70;99.90;;;;;;5113815;28;20683;-78
2021/12/04 15:05:30;;;;;;;1.80;1.00;;;5.80;99.90;;;;;;5113851;28;20202;-78
2021/12/04 15:08:05;;;;;;;2.77;0.90;;;5.90;99.90;;;;;;5113304;28;20570;-78
2021/12/04 15:10:33;;;;;;;4.03;1.23;;;6.00;99.90;;;;;;5121339;27;20284;-78
2021/12/04 15:13:01;;;;;;;2.40;1.33;;;5.90;99.90;;;;;;5113590;28;20841;-78
2021/12/04 15:15:30;;;;;;;2.23;1.30;;;5.80;99.90;;;;;;5113903;28;20274;-78
2021/12/04 15:18:00;;;;;;;5.33;1.10;;;5.70;99.90;;;;;;5113950;28;20284;-78
2021/12/04 15:20:33;;;;;;;6.23;2.07;;;5.70;99.90;;;;;;5113935;28;20244;-78
2021/12/04 15:23:04;;;;;;;5.13;2.57;;;5.60;99.90;;;;;;5113785;28;20928;-78
2021/12/04 15:25:35;;;;;;;4.90;2.00;;;5.50;99.90;;;;;;5113954;28;20204;-78
2021/12/04 15:28:02;;;;;;;3.57;1.90;;;5.50;99.90;;;;;;5119186;27;20671;-78
2021/12/04 15:30:32;;;;;;;4.33;1.90;;;5.40;99.90;;;;;;5114074;28;20229;-78
2021/12/04 15:32:59;;;;;;;3.67;1.60;;;5.30;99.90;;;;;;5119633;27;20229;-80
2021/12/04 15:35:32;;;;;;;3.90;1.73;;;5.40;99.90;;;;;;5128437;27;20287;-79
2021/12/04 15:38:04;;;;;;;2.43;1.50;;;5.40;99.90;;;;;;5113987;27;20201;-78
2021/12/04 15:40:41;;;;;;;5.27;2.00;;;5.20;99.90;;;;;;5113776;28;20223;-79
2021/12/04 15:43:16;;;;;;;3.40;1.63;;;5.30;99.90;;;;;;5117253;27;20551;-80
2021/12/04 15:46:00;;;;;;;6.93;2.47;;;5.20;99.90;;;;;;5111220;27;20694;-79
2021/12/04 15:48:52;;;;;;;5.07;2.33;;;5.10;99.90;;;;;;5112305;27;20226;-79
2021/12/04 15:52:45;;;;;;;8.10;3.00;;;5.10;99.90;;;;;;5112728;28;20190;-81